createdAt,value
2023-02-22T00:00:11.965Z,76.80028
2023-02-22T00:05:13.734Z,75.14908
2023-02-22T00:10:15.325Z,78.3115
2023-02-22T00:15:17.145Z,76.57487
2023-02-22T00:20:19.023Z,77.40986
2023-02-22T00:25:20.649Z,74.15428
2023-02-22T00:30:22.439Z,73.45565
2023-02-22T00:35:24.078Z,76.87765
2023-02-22T00:40:25.703Z,74.35468
2023-02-22T00:45:27.412Z,73.78168
2023-02-22T00:50:29.038Z,72.24209
2023-02-22T00:55:30.623Z,72.37455
2023-02-22T01:00:32.270Z,74.22116
2023-02-22T01:05:33.872Z,71.53811
2023-02-22T01:10:35.947Z,69.28014
2023-02-22T01:15:37.634Z,72.68006
2023-02-22T01:20:39.253Z,71.66988
2023-02-22T01:25:40.870Z,70.83161
2023-02-22T01:30:42.685Z,71.56223
2023-02-22T01:35:44.453Z,68.36755
2023-02-22T01:40:46.293Z,68.98447
2023-02-22T01:45:48.053Z,68.45122
2023-02-22T01:50:49.698Z,66.79275
2023-02-22T01:55:51.307Z,74.72426
2023-02-22T02:00:53.017Z,73.02165
2023-02-22T02:05:54.591Z,74.79563
2023-02-22T02:10:56.184Z,68.54043
2023-02-22T02:15:58.070Z,75.10539
2023-02-22T02:20:59.682Z,77.51681
2023-02-22T02:26:01.286Z,77.39486
2023-02-22T02:31:03.009Z,76.45221
2023-02-22T02:36:04.618Z,63.0728
2023-02-22T02:41:06.256Z,65.57696
2023-02-22T02:46:07.997Z,71.43316
2023-02-22T02:51:09.613Z,66.49312
2023-02-22T02:56:11.309Z,70.12557
2023-02-22T03:01:13.225Z,69.34715
2023-02-22T03:06:14.867Z,70.25193
2023-02-22T03:11:16.863Z,68.68062
2023-02-22T03:16:18.756Z,71.79397
2023-02-22T03:21:20.454Z,72.91739
2023-02-22T03:26:22.049Z,70.50276
2023-02-22T03:31:24.012Z,62.06499
2023-02-22T03:36:25.643Z,63.95107
2023-02-22T03:41:27.272Z,60.38147
2023-02-22T03:46:29.013Z,63.56632
2023-02-22T03:51:30.736Z,60.83537
2023-02-22T03:56:34.425Z,60.96839
2023-02-22T04:01:36.514Z,63.57171
2023-02-22T04:06:38.159Z,67.50044
2023-02-22T04:11:39.780Z,62.75358
2023-02-22T04:16:41.456Z,65.75221
2023-02-22T04:21:43.078Z,61.55335
2023-02-22T04:26:44.767Z,63.97509
2023-02-22T04:31:46.640Z,62.5246
2023-02-22T04:36:48.268Z,62.43483
2023-02-22T04:41:49.901Z,64.57566
2023-02-22T04:46:51.666Z,64.97296
2023-02-22T04:51:53.293Z,66.30303
2023-02-22T04:56:54.914Z,62.16277
2023-02-22T05:01:56.609Z,61.5261
2023-02-22T05:06:58.289Z,60.81078
2023-02-22T05:11:59.928Z,61.18867
2023-02-22T05:17:01.740Z,58.47401
2023-02-22T05:22:03.443Z,61.04364
2023-02-22T05:27:05.102Z,60.55472
2023-02-22T05:32:06.925Z,62.49994
2023-02-22T05:37:08.639Z,63.80005
2023-02-22T05:42:10.299Z,63.28741
2023-02-22T05:47:12.011Z,60.45645
2023-02-22T05:52:13.601Z,62.17322
2023-02-22T05:57:15.261Z,61.61085
2023-02-22T06:02:17.212Z,62.02248
2023-02-22T06:07:18.995Z,62.80742
2023-02-22T06:12:20.590Z,59.2593
2023-02-22T06:17:22.595Z,61.85207
2023-02-22T06:22:24.207Z,62.70581
2023-02-22T06:27:25.793Z,58.89582
2023-02-22T06:32:27.598Z,61.32185
2023-02-22T06:37:29.364Z,62.96952
2023-02-22T06:42:30.960Z,59.3944
2023-02-22T06:47:32.685Z,59.01808
2023-02-22T06:52:34.289Z,53.67866
2023-02-22T06:57:35.893Z,60.9844
2023-02-22T07:02:37.681Z,57.33161
2023-02-22T07:07:39.322Z,56.11173
2023-02-22T07:12:41.032Z,60.4809
2023-02-22T07:17:42.804Z,57.51624
2023-02-22T07:22:44.431Z,59.93423
2023-02-22T07:27:46.077Z,57.38522
2023-02-22T07:32:47.893Z,53.41839
2023-02-22T07:37:49.572Z,55.94634
2023-02-22T07:42:51.219Z,56.33513
2023-02-22T07:47:52.945Z,58.34895
2023-02-22T07:52:54.580Z,53.31636
2023-02-22T07:57:56.241Z,56.69016
2023-02-22T08:02:58.029Z,56.50457
2023-02-22T08:07:59.656Z,54.20176
2023-02-22T08:13:01.299Z,56.77228
2023-02-22T08:18:03.099Z,52.58532
2023-02-22T08:23:04.700Z,52.55167
2023-02-22T08:28:06.368Z,56.42174
2023-02-22T08:33:08.206Z,56.56503
2023-02-22T08:38:09.905Z,56.13573
2023-02-22T08:43:11.519Z,54.69269
2023-02-22T08:48:13.092Z,55.307
2023-02-22T08:53:14.708Z,51.76561
2023-02-22T08:58:16.370Z,54.77781
2023-02-22T09:03:18.068Z,55.60138
2023-02-22T09:08:19.890Z,57.65604
2023-02-22T09:13:21.528Z,53.38077
2023-02-22T09:18:23.710Z,53.25095
2023-02-22T09:23:26.086Z,55.72361
2023-02-22T09:28:29.137Z,55.69102
2023-02-22T09:33:30.936Z,56.37882
2023-02-22T09:38:32.613Z,57.23387
2023-02-22T09:43:34.347Z,55.55195
2023-02-22T09:48:36.040Z,53.97164
2023-02-22T09:53:37.764Z,53.92948
2023-02-22T09:58:41.716Z,52.6848
2023-02-22T10:03:43.769Z,52.38278
2023-02-22T10:08:45.567Z,50.98314
2023-02-22T10:13:47.178Z,51.3989
2023-02-22T10:18:48.845Z,52.62989
2023-02-22T10:23:50.422Z,52.56294
2023-02-22T10:28:52.037Z,57.65713
2023-02-22T10:33:53.721Z,51.4572
2023-02-22T10:38:55.351Z,50.74835
2023-02-22T10:43:56.929Z,55.46129
2023-02-22T10:48:58.566Z,52.69441
2023-02-22T10:54:00.262Z,53.71612
2023-02-22T10:59:01.948Z,49.9112
2023-02-22T11:04:03.457Z,50.22562
2023-02-22T11:09:05.042Z,51.0348
2023-02-22T11:14:06.738Z,53.4179
2023-02-22T11:19:08.404Z,53.37382
2023-02-22T11:24:10.255Z,56.64727
2023-02-22T11:29:11.917Z,55.68798
2023-02-22T11:34:13.539Z,53.17088
2023-02-22T11:39:15.176Z,55.46948
2023-02-22T11:44:16.792Z,51.49705
2023-02-22T11:49:18.394Z,50.64303
2023-02-22T11:54:20.267Z,52.13782
2023-02-22T11:59:21.961Z,50.95102
2023-02-22T12:04:23.612Z,52.91216
2023-02-22T12:09:25.214Z,48.3106
2023-02-22T12:14:26.904Z,52.26529
2023-02-22T12:19:28.540Z,50.52592
2023-02-22T12:24:30.177Z,49.39286
2023-02-22T12:29:31.782Z,50.51018
2023-02-22T12:34:33.460Z,51.40029
2023-02-22T12:39:47.094Z,49.56997
2023-02-22T12:44:53.856Z,48.53257
2023-02-22T12:49:55.449Z,51.41639
2023-02-22T12:54:57.092Z,50.87658
2023-02-22T12:59:58.707Z,48.89479
2023-02-22T13:05:00.385Z,48.01609
2023-02-22T13:10:02.056Z,48.14862
2023-02-22T13:15:03.678Z,49.74803
2023-02-22T13:20:05.304Z,50.95593
2023-02-22T13:25:06.898Z,52.63995
2023-02-22T13:30:08.655Z,48.53117
2023-02-22T13:35:10.347Z,50.32713
2023-02-22T13:40:12.048Z,50.95252
2023-02-22T13:45:13.638Z,48.9325
2023-02-22T13:50:15.385Z,47.23082
2023-02-22T13:55:17.066Z,48.95926
2023-02-22T14:00:18.949Z,49.70157
2023-02-22T14:05:21.056Z,51.25389
2023-02-22T14:10:22.740Z,48.51684
2023-02-22T14:15:29.797Z,45.75128
2023-02-22T14:20:32.599Z,49.6152
2023-02-22T14:25:34.388Z,46.8985
2023-02-22T14:30:36.150Z,47.484
2023-02-22T14:35:49.187Z,48.22651
2023-02-22T14:40:51.873Z,48.47851
2023-02-22T14:45:53.834Z,44.4613
2023-02-22T14:50:55.697Z,46.79862
2023-02-22T14:55:57.272Z,47.63838
2023-02-22T15:00:58.879Z,46.74549
2023-02-22T15:06:00.489Z,48.55109
2023-02-22T15:11:02.081Z,47.49956
2023-02-22T15:16:03.748Z,49.57525
2023-02-22T15:21:06.938Z,48.46366
2023-02-22T15:26:08.733Z,46.09343
2023-02-22T15:31:10.379Z,46.74477
2023-02-22T15:36:12.007Z,46.64825
2023-02-22T15:41:13.621Z,42.66704
2023-02-22T15:46:15.304Z,43.91472
2023-02-22T15:51:17.243Z,40.80238
2023-02-22T15:56:19.030Z,44.04923
2023-02-22T16:01:21.302Z,43.94354
2023-02-22T16:06:23.336Z,45.89221
2023-02-22T16:11:25.002Z,47.24421
2023-02-22T16:16:26.775Z,44.4854
2023-02-22T16:21:28.404Z,45.45278
2023-02-22T16:26:29.998Z,45.07633
2023-02-22T16:31:31.655Z,46.05738
2023-02-22T16:36:33.336Z,46.08987
2023-02-22T16:41:34.953Z,45.58024
2023-02-22T16:46:36.818Z,42.8223
2023-02-22T16:51:38.444Z,44.11747
2023-02-22T16:56:40.089Z,47.10728
2023-02-22T17:01:41.733Z,51.15774
2023-02-22T17:06:43.346Z,45.01589
2023-02-22T17:11:44.989Z,47.9156
2023-02-22T17:16:46.601Z,46.52651
2023-02-22T17:21:48.281Z,44.19017
2023-02-22T17:26:49.922Z,48.45455
2023-02-22T17:31:51.548Z,44.22833
2023-02-22T17:36:53.175Z,47.52229
2023-02-22T17:41:54.931Z,43.92342
2023-02-22T17:46:56.572Z,47.24104
2023-02-22T17:51:58.209Z,45.94473
2023-02-22T17:56:59.828Z,45.33203
2023-02-22T18:02:01.534Z,44.54226
2023-02-22T18:07:03.138Z,45.71396
2023-02-22T18:12:05.022Z,43.65421
2023-02-22T18:17:06.597Z,43.62686
2023-02-22T18:22:08.205Z,45.68868
2023-02-22T18:27:09.793Z,44.74724
2023-02-22T18:32:11.417Z,46.24623
2023-02-22T18:37:13.136Z,45.9413
2023-02-22T18:42:14.867Z,41.29514
2023-02-22T18:47:16.488Z,39.87672
2023-02-22T18:52:18.139Z,41.85568
2023-02-22T18:57:19.741Z,39.11528
2023-02-22T19:02:21.372Z,44.51258
2023-02-22T19:07:23.012Z,38.85847
2023-02-22T19:12:24.640Z,42.3226
2023-02-22T19:17:26.302Z,43.95622
2023-02-22T19:22:28.020Z,41.85163
2023-02-22T19:27:29.653Z,44.21478
2023-02-22T19:32:31.368Z,42.29247
2023-02-22T19:37:33.002Z,39.38715
2023-02-22T19:42:34.587Z,39.71438
2023-02-22T19:47:36.216Z,40.69071
2023-02-22T19:52:38.045Z,39.44145
2023-02-22T19:57:39.632Z,38.25652
2023-02-22T20:02:41.288Z,39.04925
2023-02-22T20:07:42.890Z,40.78052
2023-02-22T20:12:44.489Z,41.25574
2023-02-22T20:17:46.127Z,41.02699
2023-02-22T20:22:47.734Z,40.80541
2023-02-22T20:27:49.311Z,42.86482
2023-02-22T20:32:51.558Z,40.02033
2023-02-22T20:37:53.360Z,40.01689
2023-02-22T20:42:55.017Z,40.29282
2023-02-22T20:47:56.622Z,44.30439
2023-02-22T20:52:58.247Z,41.12807
2023-02-22T20:57:59.942Z,42.29916
2023-02-22T21:03:01.576Z,43.5057
2023-02-22T21:08:03.208Z,40.33915
2023-02-22T21:13:05.638Z,40.87036
2023-02-22T21:18:09.967Z,43.62297
2023-02-22T21:23:11.553Z,40.84632
2023-02-22T21:28:13.291Z,38.88952
2023-02-22T21:33:14.985Z,42.90607
2023-02-22T21:38:16.613Z,40.03164
2023-02-22T21:43:18.287Z,44.40397
2023-02-22T21:48:19.986Z,41.81876
2023-02-22T21:53:21.589Z,41.62336
2023-02-22T21:58:23.345Z,41.60653
2023-02-22T22:03:25.006Z,45.45765
2023-02-22T22:08:26.758Z,44.43149
2023-02-22T22:13:28.408Z,43.79252
2023-02-22T22:18:30.131Z,43.3808
2023-02-22T22:23:31.818Z,46.02545
2023-02-22T22:28:33.436Z,42.59741
2023-02-22T22:33:35.056Z,42.13203
2023-02-22T22:38:36.769Z,41.23349
2023-02-22T22:43:38.423Z,45.55627
2023-02-22T22:48:40.072Z,45.79875
2023-02-22T22:53:41.705Z,41.68036
2023-02-22T22:58:43.386Z,44.13494
2023-02-22T23:03:45.086Z,47.6549
2023-02-22T23:08:46.801Z,43.34754
2023-02-22T23:13:48.426Z,44.30039
2023-02-22T23:18:50.202Z,44.20405
2023-02-22T23:23:51.843Z,42.31825
2023-02-22T23:28:53.487Z,43.58981
2023-02-22T23:33:55.089Z,38.9207
2023-02-22T23:38:56.753Z,44.56549
2023-02-22T23:43:58.440Z,39.631
2023-02-22T23:49:00.108Z,38.01916
2023-02-22T23:54:01.819Z,43.62707
2023-02-22T23:59:03.449Z,41.58299
